Time;durP1;ratioP1;P1;durP2;ratioP2;P2;SDS_P1;SDS_P2;PMS_P1;PMS_P2;Temp;Humidity;BMP_temperature;BMP_pressure;BME280_temperature;BME280_humidity;BME280_pressure;Samples;Min_cycle;Max_cycle;Signal;HPM_P1;HPM_P2
2022/01/17 00:01:43;;;;;;;18.98;11.45;;;3.60;72.50;;;;;;5057308;28;20418;-74
2022/01/17 00:04:10;;;;;;;19.35;11.30;;;3.50;72.90;;;;;;5057329;28;20415;-78
2022/01/17 00:06:39;;;;;;;17.00;10.57;;;3.50;73.50;;;;;;5057181;28;20024;-77
2022/01/17 00:09:05;;;;;;;22.25;12.32;;;3.50;73.40;;;;;;5057183;28;20405;-78
2022/01/17 00:11:31;;;;;;;20.40;11.95;;;3.60;73.10;;;;;;5057375;28;20115;-77
2022/01/17 00:13:58;;;;;;;21.58;11.85;;;3.50;73.30;;;;;;5074719;28;20545;-77
2022/01/17 00:16:33;;;;;;;22.02;11.80;;;3.50;73.50;;;;;;5056964;28;20021;-77
2022/01/17 00:19:34;;;;;;;19.08;10.73;;;3.40;73.90;;;;;;5074926;28;20017;-77
2022/01/17 00:21:53;;;;;;;22.48;10.98;;;3.40;74.10;;;;;;5074688;28;20027;-77
2022/01/17 00:24:21;;;;;;;19.00;9.68;;;3.40;74.30;;;;;;5074529;28;20400;-77
2022/01/17 00:26:47;;;;;;;19.98;10.95;;;3.40;74.70;;;;;;5057077;28;20048;-77
2022/01/17 00:29:13;;;;;;;17.95;9.88;;;3.30;75.30;;;;;;5056758;28;20079;-77
2022/01/17 00:31:39;;;;;;;20.92;11.02;;;3.30;75.40;;;;;;5056763;28;20066;-77
2022/01/17 00:34:04;;;;;;;19.02;10.40;;;3.30;75.30;;;;;;5074098;28;20048;-77
2022/01/17 00:36:30;;;;;;;21.42;11.18;;;3.40;75.10;;;;;;5074452;28;20053;-77
2022/01/17 00:38:56;;;;;;;18.40;10.52;;;3.20;75.60;;;;;;5056490;28;20021;-77
2022/01/17 00:41:21;;;;;;;19.17;9.80;;;3.10;76.40;;;;;;5056413;28;20559;-77
2022/01/17 00:43:47;;;;;;;17.67;9.23;;;3.20;76.50;;;;;;5056722;28;20025;-77
2022/01/17 00:46:13;;;;;;;15.38;9.85;;;3.20;76.30;;;;;;5056262;28;20024;-77
2022/01/17 00:48:38;;;;;;;17.63;9.93;;;3.20;76.30;;;;;;5056920;28;20033;-76
2022/01/17 00:51:04;;;;;;;17.38;9.55;;;3.20;76.30;;;;;;5056263;28;20017;-77
2022/01/17 00:53:30;;;;;;;17.27;9.10;;;3.30;76.30;;;;;;5056462;28;20117;-78
2022/01/17 00:55:55;;;;;;;17.38;9.77;;;3.30;76.10;;;;;;5056463;28;20039;-77
2022/01/17 00:58:21;;;;;;;16.70;8.93;;;3.40;76.10;;;;;;5056257;28;20020;-77
2022/01/17 01:00:47;;;;;;;15.32;8.82;;;3.40;76.00;;;;;;5056051;28;20028;-77
2022/01/17 01:03:13;;;;;;;16.42;9.45;;;3.40;75.90;;;;;;5056096;28;20103;-77
2022/01/17 01:05:39;;;;;;;15.60;8.63;;;3.40;75.80;;;;;;5056004;28;20025;-76
2022/01/17 01:08:05;;;;;;;12.40;7.25;;;3.40;75.90;;;;;;5056088;28;20036;-77
2022/01/17 01:10:31;;;;;;;16.20;8.30;;;3.50;75.80;;;;;;5055908;28;20028;-77
2022/01/17 01:12:57;;;;;;;14.38;7.88;;;3.50;76.00;;;;;;5056006;28;20469;-77
2022/01/17 01:15:47;;;;;;;14.57;8.73;;;3.40;76.00;;;;;;5055890;28;20128;-77
2022/01/17 01:18:30;;;;;;;16.80;8.75;;;3.40;76.40;;;;;;5057671;28;20021;-77
2022/01/17 01:21:26;;;;;;;18.23;8.70;;;3.40;76.60;;;;;;5055956;28;20469;-77
2022/01/17 01:29:17;;;;;;;10.23;6.10;;;3.40;77.00;;;;;;5073690;28;20040;-77
2022/01/17 01:31:56;;;;;;;9.95;5.95;;;3.40;78.10;;;;;;5055593;28;20393;-77
2022/01/17 01:34:32;;;;;;;12.57;6.93;;;3.40;77.90;;;;;;5055620;28;20075;-76
2022/01/17 01:36:58;;;;;;;;;;;3.40;78.10;;;;;;5052597;28;20053;-76
2022/01/17 01:39:24;;;;;;;;;;;3.40;78.30;;;;;;5052588;28;20281;-77
2022/01/17 01:41:51;;;;;;;13.30;6.43;;;3.40;78.40;;;;;;5052312;28;20357;-77
2022/01/17 01:44:20;;;;;;;13.23;6.32;;;3.40;78.60;;;;;;5052080;28;20582;-77
2022/01/17 01:46:47;;;;;;;11.93;5.43;;;3.40;78.40;;;;;;5051911;28;20374;-77
2022/01/17 01:49:16;;;;;;;12.65;4.85;;;3.30;79.00;;;;;;5051836;28;20021;-77
2022/01/17 01:51:42;;;;;;;8.90;5.05;;;3.30;79.30;;;;;;5052017;28;20029;-77
2022/01/17 01:54:08;;;;;;;8.00;4.93;;;3.30;79.10;;;;;;5051932;28;20051;-76
2022/01/17 01:56:39;;;;;;;7.97;4.60;;;3.30;79.10;;;;;;5052199;28;20021;-77
2022/01/17 01:59:06;;;;;;;8.77;4.60;;;3.30;79.00;;;;;;5051814;28;20040;-77
2022/01/17 02:01:32;;;;;;;9.10;4.25;;;3.40;78.90;;;;;;5052094;28;20115;-77
2022/01/17 02:03:58;;;;;;;6.50;4.10;;;3.40;79.00;;;;;;5051856;28;20032;-77
2022/01/17 02:06:24;;;;;;;8.07;4.10;;;3.40;78.90;;;;;;5051907;28;20021;-76
2022/01/17 02:08:49;;;;;;;8.85;4.93;;;3.40;78.80;;;;;;5052128;28;20021;-75
2022/01/17 02:11:16;;;;;;;9.50;4.65;;;3.40;78.60;;;;;;5051781;28;20500;-76
2022/01/17 02:13:41;;;;;;;10.95;6.22;;;3.40;78.30;;;;;;5051892;28;20021;-76
2022/01/17 02:16:11;;;;;;;12.45;6.15;;;3.30;78.00;;;;;;5053198;28;20044;-76
2022/01/17 02:18:39;;;;;;;11.38;5.93;;;3.20;78.20;;;;;;5059338;28;20029;-77
2022/01/17 02:23:51;;;;;;;8.60;5.28;;;3.10;78.80;;;;;;5056450;28;20064;-76
2022/01/17 02:26:18;;;;;;;9.73;5.68;;;3.10;79.00;;;;;;5051697;28;20128;-76
2022/01/17 02:28:49;;;;;;;11.55;6.22;;;3.10;79.00;;;;;;5051865;28;20124;-77
2022/01/17 02:31:15;;;;;;;10.60;5.50;;;3.10;79.20;;;;;;5051842;28;20080;-77
2022/01/17 02:33:40;;;;;;;11.52;5.28;;;3.10;79.50;;;;;;5051562;28;20025;-76
2022/01/17 02:36:06;;;;;;;7.18;3.30;;;3.00;79.70;;;;;;5051500;28;20122;-76
2022/01/17 02:38:32;;;;;;;7.40;4.38;;;3.10;79.40;;;;;;5051533;28;20048;-77
2022/01/17 02:40:58;;;;;;;6.93;4.30;;;3.20;78.70;;;;;;5051677;28;20025;-77
2022/01/17 02:43:26;;;;;;;8.70;4.90;;;3.20;78.30;;;;;;5053949;28;20031;-77
2022/01/17 02:48:19;;;;;;;8.68;4.25;;;3.40;77.70;;;;;;5056830;28;20580;-77
2022/01/17 02:50:45;;;;;;;7.55;4.65;;;3.40;77.70;;;;;;5055469;28;20021;-76
2022/01/17 02:53:12;;;;;;;8.50;4.20;;;3.40;77.50;;;;;;5055091;28;20031;-76
2022/01/17 02:55:46;;;;;;;8.48;4.47;;;3.40;78.10;;;;;;5056426;28;20075;-77
2022/01/17 02:58:12;;;;;;;9.43;4.13;;;3.50;77.30;;;;;;5055271;28;20028;-77
2022/01/17 03:00:37;;;;;;;6.10;3.92;;;3.50;77.10;;;;;;5055463;28;20414;-76
2022/01/17 03:03:03;;;;;;;7.25;3.88;;;3.40;76.90;;;;;;5055259;28;20029;-77
2022/01/17 03:05:29;;;;;;;7.72;4.32;;;3.50;77.10;;;;;;5054648;28;20029;-76
2022/01/17 03:07:54;;;;;;;7.65;4.20;;;3.40;77.10;;;;;;5055317;28;20039;-77
2022/01/17 03:13:05;;;;;;;5.15;3.38;;;3.40;77.10;;;;;;5056376;28;20163;-77
2022/01/17 03:15:31;;;;;;;6.22;4.00;;;3.50;76.90;;;;;;5055901;28;20112;-77
2022/01/17 03:17:57;;;;;;;6.22;3.58;;;3.50;76.70;;;;;;5056239;28;20055;-77
2022/01/17 03:20:22;;;;;;;6.60;3.70;;;3.50;76.80;;;;;;5054778;28;20115;-77
2022/01/17 03:22:48;;;;;;;10.18;4.75;;;3.50;77.00;;;;;;5054956;28;20035;-77
2022/01/17 03:25:13;;;;;;;9.63;5.45;;;3.50;77.20;;;;;;5054636;28;20390;-77
2022/01/17 03:27:39;;;;;;;11.27;5.57;;;3.40;77.30;;;;;;5054715;28;20029;-76
2022/01/17 03:30:05;;;;;;;10.05;5.63;;;3.40;77.50;;;;;;5054504;28;20036;-77
2022/01/17 03:32:31;;;;;;;9.40;5.13;;;3.30;77.40;;;;;;5054559;28;20385;-77
2022/01/17 03:34:57;;;;;;;11.98;5.78;;;3.40;77.50;;;;;;5040816;28;20143;-77
2022/01/17 03:37:23;;;;;;;12.00;5.80;;;3.40;77.40;;;;;;5056508;28;20021;-76
2022/01/17 03:39:49;;;;;;;11.18;5.28;;;3.30;77.60;;;;;;5056721;28;20397;-76
2022/01/17 03:42:15;;;;;;;10.60;5.68;;;3.30;77.60;;;;;;5056562;28;20439;-77
2022/01/17 03:44:40;;;;;;;11.02;5.18;;;3.30;77.50;;;;;;5056499;28;20111;-77
2022/01/17 03:47:06;;;;;;;12.10;5.88;;;3.30;77.60;;;;;;5056428;28;20111;-76
2022/01/17 03:49:32;;;;;;;10.23;5.95;;;3.30;77.60;;;;;;5056470;28;20106;-77
2022/01/17 03:51:58;;;;;;;10.23;5.95;;;3.30;77.50;;;;;;5056379;28;20039;-76
2022/01/17 03:54:23;;;;;;;9.27;5.03;;;3.10;77.70;;;;;;5055755;28;20449;-76
2022/01/17 03:56:49;;;;;;;8.45;5.07;;;3.10;77.90;;;;;;5056251;28;20024;-76
2022/01/17 03:59:14;;;;;;;12.80;6.75;;;3.20;78.10;;;;;;5056171;28;20028;-76
2022/01/17 04:01:40;;;;;;;11.57;6.43;;;3.20;78.00;;;;;;5039421;28;20029;-76
2022/01/17 04:04:06;;;;;;;10.90;6.32;;;3.10;78.20;;;;;;5056198;28;20067;-76
2022/01/17 04:06:32;;;;;;;10.88;6.07;;;3.10;78.30;;;;;;5055939;28;20025;-76
2022/01/17 04:08:58;;;;;;;9.77;5.78;;;3.10;78.30;;;;;;5056432;28;20044;-76
2022/01/17 04:11:24;;;;;;;11.35;6.20;;;3.20;79.00;;;;;;5056340;28;20051;-77
2022/01/17 04:13:49;;;;;;;9.25;5.90;;;3.20;77.90;;;;;;5055995;28;20024;-77
2022/01/17 04:16:15;;;;;;;11.05;5.88;;;3.20;77.80;;;;;;5056146;28;20074;-77
2022/01/17 04:18:41;;;;;;;10.32;5.60;;;3.30;77.90;;;;;;5056119;28;20016;-77
2022/01/17 04:21:06;;;;;;;13.70;7.22;;;3.30;77.70;;;;;;5055547;28;20059;-77
2022/01/17 04:23:32;;;;;;;13.82;6.38;;;3.30;77.40;;;;;;5056111;28;20078;-77
2022/01/17 04:25:58;;;;;;;10.30;6.38;;;3.30;77.00;;;;;;5055881;28;20431;-77
2022/01/17 04:28:23;;;;;;;12.15;5.85;;;3.30;77.10;;;;;;5055681;28;20024;-76
2022/01/17 04:30:49;;;;;;;13.80;7.10;;;3.20;77.10;;;;;;5055797;28;20024;-76
2022/01/17 04:33:15;;;;;;;12.13;7.60;;;3.20;77.20;;;;;;5055328;28;20595;-76
2022/01/17 04:35:43;;;;;;;10.88;5.95;;;3.20;77.30;;;;;;5017429;28;1103910;-77
2022/01/17 04:38:18;;;;;;;10.25;6.00;;;3.10;77.30;;;;;;5056699;28;20029;-77
2022/01/17 04:40:46;;;;;;;15.00;6.30;;;3.20;77.20;;;;;;5056721;28;20044;-77
2022/01/17 04:43:20;;;;;;;11.98;5.97;;;3.20;77.00;;;;;;5056231;28;20020;-77
2022/01/17 04:45:50;;;;;;;10.65;6.20;;;3.30;77.00;;;;;;5056335;28;20607;-77
2022/01/17 04:48:16;;;;;;;9.25;5.90;;;3.30;76.80;;;;;;5056378;28;20028;-75
2022/01/17 04:50:42;;;;;;;9.10;5.55;;;3.30;76.80;;;;;;5056137;28;20043;-75
2022/01/17 04:53:08;;;;;;;11.13;7.13;;;3.40;76.70;;;;;;5056113;28;20028;-75
2022/01/17 04:55:36;;;;;;;10.05;6.47;;;3.40;76.40;;;;;;5056266;28;20040;-75
2022/01/17 04:58:03;;;;;;;13.52;6.97;;;3.40;76.30;;;;;;5056106;28;20074;-76
2022/01/17 05:00:28;;;;;;;9.43;6.28;;;3.30;76.40;;;;;;5055959;28;20036;-76
2022/01/17 05:02:54;;;;;;;8.65;5.35;;;3.30;76.60;;;;;;5055807;28;20377;-76
2022/01/17 05:05:20;;;;;;;11.43;7.00;;;3.20;76.80;;;;;;5055058;28;20029;-76
2022/01/17 05:07:46;;;;;;;13.07;6.47;;;3.20;76.90;;;;;;5055952;28;20039;-76
2022/01/17 05:10:15;;;;;;;14.38;7.75;;;3.30;76.70;;;;;;5055883;28;20469;-76
2022/01/17 05:12:41;;;;;;;15.30;8.05;;;3.20;76.90;;;;;;5055996;28;20381;-76
2022/01/17 05:15:17;;;;;;;20.13;8.77;;;3.30;77.10;;;;;;5055848;28;20068;-76
2022/01/17 05:17:55;;;;;;;15.13;9.40;;;3.30;77.00;;;;;;5056011;28;20028;-77
2022/01/17 05:20:20;;;;;;;15.68;9.35;;;3.40;77.00;;;;;;5055512;28;20056;-77
2022/01/17 05:22:46;;;;;;;12.10;6.80;;;3.40;76.80;;;;;;5055644;28;20381;-77
2022/01/17 05:25:12;;;;;;;14.60;7.40;;;3.30;76.40;;;;;;5055716;28;20036;-76
2022/01/17 05:27:38;;;;;;;11.90;6.82;;;3.30;76.40;;;;;;5055813;28;20027;-77
2022/01/17 05:30:07;;;;;;;13.52;7.53;;;3.40;76.50;;;;;;5055139;28;20029;-76
2022/01/17 05:32:32;;;;;;;13.63;7.38;;;3.40;76.40;;;;;;5055764;28;20541;-76
2022/01/17 05:34:58;;;;;;;13.73;7.05;;;3.40;76.30;;;;;;5055647;28;20159;-76
2022/01/17 05:37:24;;;;;;;11.60;6.38;;;3.40;76.40;;;;;;5055515;28;20036;-76
2022/01/17 05:39:49;;;;;;;11.00;6.22;;;3.50;76.40;;;;;;5055607;28;20027;-76
2022/01/17 05:42:17;;;;;;;12.45;6.90;;;3.40;76.30;;;;;;5055246;28;20020;-76
2022/01/17 05:44:47;;;;;;;12.23;6.60;;;3.40;76.30;;;;;;5055407;28;20051;-76
2022/01/17 05:47:13;;;;;;;11.80;6.38;;;3.50;76.40;;;;;;5055526;28;20020;-76
2022/01/17 05:49:39;;;;;;;8.95;6.07;;;3.50;76.30;;;;;;5055689;28;20464;-77
2022/01/17 05:52:06;;;;;;;12.32;6.82;;;3.60;76.30;;;;;;5064575;28;20048;-77
2022/01/17 05:54:31;;;;;;;12.23;6.50;;;3.50;76.30;;;;;;5097782;28;20023;-77
2022/01/17 05:56:57;;;;;;;12.10;6.63;;;3.60;76.30;;;;;;5081135;28;20012;-77
2022/01/17 05:59:22;;;;;;;16.00;9.05;;;3.50;76.20;;;;;;5081016;28;20056;-77
2022/01/17 06:01:48;;;;;;;9.90;6.05;;;3.50;77.10;;;;;;5079985;28;20013;-77
2022/01/17 06:04:14;;;;;;;11.32;5.82;;;3.60;76.40;;;;;;5077893;28;20020;-78
2022/01/17 06:06:39;;;;;;;8.45;5.53;;;3.60;76.40;;;;;;5066389;28;20036;-79
2022/01/17 06:09:05;;;;;;;11.43;6.10;;;3.60;76.70;;;;;;5060317;28;20124;-79
2022/01/17 06:11:33;;;;;;;11.75;6.32;;;3.60;76.70;;;;;;5058352;28;20031;-77
2022/01/17 06:13:59;;;;;;;10.55;5.82;;;3.60;76.70;;;;;;5058157;28;20120;-77
2022/01/17 06:16:26;;;;;;;10.23;6.50;;;3.70;76.80;;;;;;5058045;28;20115;-79
2022/01/17 06:18:51;;;;;;;9.02;6.45;;;3.70;76.80;;;;;;5056841;28;20059;-78
2022/01/17 06:21:17;;;;;;;8.60;5.63;;;3.70;76.80;;;;;;5054924;28;20024;-78
2022/01/17 06:23:43;;;;;;;14.32;7.63;;;3.60;76.70;;;;;;5054635;28;20123;-78
2022/01/17 06:26:09;;;;;;;20.15;8.93;;;3.70;76.80;;;;;;5054697;28;20021;-78
2022/01/17 06:28:35;;;;;;;27.00;12.10;;;3.70;76.80;;;;;;5038075;28;20079;-78
2022/01/17 06:31:01;;;;;;;19.30;10.43;;;3.70;76.80;;;;;;5072144;28;20032;-76
2022/01/17 06:33:26;;;;;;;12.95;7.13;;;3.70;76.80;;;;;;5054651;28;20477;-77
2022/01/17 06:35:52;;;;;;;10.20;6.30;;;3.60;76.90;;;;;;5051023;28;20409;-77
2022/01/17 06:38:18;;;;;;;15.85;8.27;;;3.60;77.10;;;;;;5051139;28;20106;-77
2022/01/17 06:40:43;;;;;;;13.85;8.30;;;3.60;77.10;;;;;;5051321;28;20032;-77
2022/01/17 06:43:10;;;;;;;11.02;5.93;;;3.70;77.40;;;;;;5051112;28;20034;-77
2022/01/17 06:45:36;;;;;;;9.88;5.53;;;3.70;77.30;;;;;;5050890;28;20082;-77
2022/01/17 06:48:03;;;;;;;8.77;5.38;;;3.70;77.10;;;;;;5051059;28;20477;-77
2022/01/17 06:50:29;;;;;;;7.78;5.35;;;3.70;77.10;;;;;;5051178;28;20040;-76
2022/01/17 06:52:54;;;;;;;10.15;5.85;;;3.70;77.20;;;;;;5051280;28;20021;-77
2022/01/17 06:55:22;;;;;;;10.95;6.68;;;3.70;77.40;;;;;;5052076;28;20088;-77
2022/01/17 06:57:47;;;;;;;9.40;5.15;;;3.70;77.50;;;;;;5051046;28;20075;-77
2022/01/17 07:00:13;;;;;;;7.70;4.72;;;3.80;77.80;;;;;;5050845;28;20436;-77
2022/01/17 07:02:39;;;;;;;9.88;4.60;;;3.70;78.40;;;;;;5050377;28;20543;-76
2022/01/17 07:05:06;;;;;;;8.65;4.90;;;3.70;78.60;;;;;;5050978;28;20229;-76
2022/01/17 07:07:31;;;;;;;7.85;4.80;;;3.70;78.70;;;;;;5050895;28;20021;-76
2022/01/17 07:09:58;;;;;;;8.82;4.90;;;3.70;78.80;;;;;;5050862;28;20504;-76
2022/01/17 07:12:25;;;;;;;14.05;5.60;;;3.70;78.90;;;;;;5050687;28;20358;-77
2022/01/17 07:14:51;;;;;;;9.95;5.93;;;3.70;79.50;;;;;;5051113;28;20503;-77
2022/01/17 07:17:16;;;;;;;9.60;5.57;;;3.70;79.50;;;;;;5034447;28;20128;-76
2022/01/17 07:19:42;;;;;;;9.05;5.55;;;3.70;79.40;;;;;;5051115;28;20013;-77
2022/01/17 07:22:08;;;;;;;11.68;5.35;;;3.70;79.10;;;;;;5050948;28;20539;-78
2022/01/17 07:24:35;;;;;;;8.00;5.30;;;3.70;79.20;;;;;;5052151;28;20116;-77
2022/01/17 07:27:01;;;;;;;11.55;5.68;;;3.70;78.90;;;;;;5050626;28;20043;-78
2022/01/17 07:29:27;;;;;;;10.32;5.47;;;3.80;78.80;;;;;;5055121;28;20017;-77
2022/01/17 07:31:56;;;;;;;10.15;5.63;;;3.70;79.40;;;;;;5054379;28;20031;-77
2022/01/17 07:34:22;;;;;;;10.80;5.65;;;3.70;79.10;;;;;;5054406;28;20040;-78
2022/01/17 07:36:48;;;;;;;10.07;5.82;;;3.70;79.10;;;;;;5073803;28;20116;-77
2022/01/17 07:39:14;;;;;;;11.68;5.90;;;3.70;79.20;;;;;;5057504;28;20024;-77
2022/01/17 07:41:40;;;;;;;11.80;6.40;;;3.70;79.20;;;;;;5057896;28;20481;-77
2022/01/17 07:44:08;;;;;;;14.25;6.57;;;3.70;79.00;;;;;;5041089;28;20032;-77
2022/01/17 07:46:47;;;;;;;15.05;8.13;;;3.80;78.80;;;;;;5057465;28;20484;-77
2022/01/17 07:49:19;;;;;;;13.63;6.78;;;3.80;78.50;;;;;;5057680;28;20048;-77
2022/01/17 07:51:46;;;;;;;11.80;5.78;;;3.80;78.50;;;;;;5057519;28;20481;-77
2022/01/17 07:54:15;;;;;;;10.90;5.53;;;3.90;78.50;;;;;;5056979;28;20021;-77
2022/01/17 07:56:45;;;;;;;13.18;6.18;;;3.90;78.40;;;;;;5057309;28;20085;-77
2022/01/17 07:59:12;;;;;;;11.73;6.70;;;3.90;78.50;;;;;;5057422;28;20017;-77
2022/01/17 08:01:39;;;;;;;9.90;5.93;;;3.80;78.60;;;;;;5057652;28;20381;-77
2022/01/17 08:04:05;;;;;;;11.10;5.40;;;3.80;78.50;;;;;;5057307;28;20032;-77
2022/01/17 08:06:36;;;;;;;12.50;6.75;;;3.80;78.60;;;;;;5057107;28;20043;-78
2022/01/17 08:09:04;;;;;;;10.88;5.80;;;3.90;78.60;;;;;;5057114;28;20031;-77
2022/01/17 08:11:30;;;;;;;9.27;5.40;;;3.90;78.60;;;;;;5057187;28;20029;-77
2022/01/17 08:13:55;;;;;;;10.18;5.82;;;3.80;79.00;;;;;;5056751;28;20380;-76
2022/01/17 08:16:21;;;;;;;9.38;5.93;;;3.70;79.50;;;;;;5056691;28;20035;-76
2022/01/17 08:18:46;;;;;;;9.18;4.80;;;3.50;81.40;;;;;;5056769;28;20025;-77
2022/01/17 08:21:12;;;;;;;11.75;6.28;;;3.50;81.60;;;;;;5056258;28;20024;-77
2022/01/17 08:23:38;;;;;;;13.32;6.78;;;3.50;81.80;;;;;;5055804;28;20111;-77
2022/01/17 08:26:03;;;;;;;13.13;5.75;;;3.50;81.90;;;;;;5055884;28;20032;-77
2022/01/17 08:28:29;;;;;;;11.90;6.38;;;3.50;82.40;;;;;;5056713;28;20165;-77
2022/01/17 08:30:55;;;;;;;12.98;6.30;;;3.50;82.70;;;;;;5056915;28;20617;-77
2022/01/17 08:33:22;;;;;;;10.43;5.30;;;3.50;82.90;;;;;;5056717;28;20036;-77
2022/01/17 08:35:47;;;;;;;9.77;4.38;;;3.60;83.10;;;;;;5056196;28;20058;-76
2022/01/17 08:38:13;;;;;;;8.18;4.40;;;3.70;83.10;;;;;;5074515;28;20025;-77
2022/01/17 08:40:39;;;;;;;6.60;4.10;;;3.80;82.60;;;;;;5055345;28;20031;-78
2022/01/17 08:43:04;;;;;;;4.82;2.95;;;3.90;82.30;;;;;;5056649;28;20054;-77
2022/01/17 08:45:30;;;;;;;4.60;2.53;;;4.00;82.00;;;;;;5056418;28;20028;-77
2022/01/17 08:47:56;;;;;;;3.58;2.10;;;4.00;81.50;;;;;;5074191;28;20100;-78
2022/01/17 08:50:23;;;;;;;3.55;2.30;;;4.00;81.50;;;;;;5056049;28;20550;-76
2022/01/17 08:52:49;;;;;;;5.18;2.05;;;4.10;81.40;;;;;;5056300;28;20017;-75
2022/01/17 08:55:16;;;;;;;5.05;1.98;;;4.50;87.90;;;;;;5056079;28;20381;-78
2022/01/17 08:57:42;;;;;;;3.80;1.85;;;4.80;80.90;;;;;;5056434;28;20473;-75
2022/01/17 09:00:13;;;;;;;3.95;1.83;;;5.10;81.10;;;;;;5055976;28;20098;-74
2022/01/17 09:02:39;;;;;;;3.50;2.58;;;5.50;78.80;;;;;;5056263;28;20016;-73
2022/01/17 09:05:05;;;;;;;4.90;1.70;;;5.50;77.40;;;;;;5055837;28;20107;-74
2022/01/17 09:07:30;;;;;;;5.80;2.20;;;5.70;75.50;;;;;;5056154;28;20433;-73
2022/01/17 09:09:56;;;;;;;5.43;1.90;;;6.00;75.70;;;;;;5056053;28;20029;-79
2022/01/17 09:12:22;;;;;;;2.40;1.70;;;6.00;73.70;;;;;;5055944;28;20017;-79
2022/01/17 09:14:48;;;;;;;4.68;1.73;;;5.70;72.80;;;;;;5055632;28;20056;-80
2022/01/17 09:17:14;;;;;;;3.70;1.95;;;5.40;74.00;;;;;;5055927;28;20048;-80
2022/01/17 09:19:41;;;;;;;3.67;2.50;;;5.10;75.40;;;;;;5055891;28;20082;-80
2022/01/17 09:22:08;;;;;;;4.50;2.95;;;4.90;76.20;;;;;;5056962;28;20058;-79
2022/01/17 09:24:36;;;;;;;4.90;3.13;;;4.80;77.10;;;;;;5055981;28;20024;-79
2022/01/17 09:27:02;;;;;;;3.85;2.58;;;4.70;77.30;;;;;;5057682;28;20017;-79
2022/01/17 09:29:28;;;;;;;4.22;2.67;;;4.60;77.40;;;;;;5056033;28;20032;-80
2022/01/17 09:31:53;;;;;;;4.53;2.50;;;4.40;78.30;;;;;;5055731;28;20036;-79
2022/01/17 09:34:19;;;;;;;6.53;3.80;;;4.30;79.20;;;;;;5055230;28;20198;-79
2022/01/17 09:36:47;;;;;;;3.60;2.20;;;4.30;79.70;;;;;;5055521;28;20437;-79
2022/01/17 09:39:14;;;;;;;3.85;2.20;;;4.30;79.90;;;;;;5055731;28;20090;-79
2022/01/17 09:41:40;;;;;;;2.33;1.73;;;4.30;79.90;;;;;;5055890;28;20469;-79
2022/01/17 09:44:09;;;;;;;3.65;1.65;;;4.20;79.70;;;;;;5056312;28;20039;-78
2022/01/17 09:46:39;;;;;;;3.60;1.90;;;4.20;79.50;;;;;;5060109;28;20021;-78
2022/01/17 09:52:25;;;;;;;2.78;1.52;;;4.20;79.60;;;;;;5059539;28;20031;-80
2022/01/17 09:54:52;;;;;;;4.03;1.95;;;4.30;79.70;;;;;;5055240;28;20581;-80
2022/01/17 09:57:19;;;;;;;4.78;2.38;;;4.40;79.10;;;;;;5038687;28;20170;-80
2022/01/17 09:59:45;;;;;;;6.82;3.00;;;4.40;79.00;;;;;;5055046;28;20025;-81
2022/01/17 10:02:13;;;;;;;7.40;3.03;;;4.50;78.70;;;;;;5054234;28;20558;-80
2022/01/17 10:04:39;;;;;;;6.32;3.40;;;4.50;78.50;;;;;;5054778;28;20089;-81
2022/01/17 10:07:06;;;;;;;15.05;7.00;;;4.50;78.70;;;;;;5055071;28;20021;-80
2022/01/17 10:09:34;;;;;;;10.57;5.50;;;4.80;78.30;;;;;;5055099;28;20028;-80
2022/01/17 10:12:09;;;;;;;2.97;1.70;;;4.90;77.70;;;;;;5038573;28;20089;-80
2022/01/17 10:14:38;;;;;;;3.28;1.90;;;4.90;76.90;;;;;;5054705;28;20059;-79
2022/01/17 10:17:08;;;;;;;4.22;1.75;;;4.90;76.90;;;;;;5054638;28;20024;-80
2022/01/17 10:19:36;;;;;;;3.60;2.40;;;5.00;76.40;;;;;;5054695;28;20445;-81
2022/01/17 10:22:09;;;;;;;3.40;2.13;;;5.10;76.00;;;;;;5038106;28;20116;-81
2022/01/17 10:25:04;;;;;;;9.93;4.05;;;5.00;76.20;;;;;;5072660;28;20025;-80
2022/01/17 10:27:45;;;;;;;3.95;2.53;;;5.00;75.90;;;;;;5057027;28;20045;-80
2022/01/17 10:35:50;;;;;;;5.43;3.63;;;5.00;76.10;;;;;;5072069;28;20455;-79
2022/01/17 10:38:21;;;;;;;2.97;1.85;;;5.00;76.20;;;;;;5054441;28;20493;-80
2022/01/17 10:40:58;;;;;;;2.60;1.50;;;4.90;76.50;;;;;;5054520;28;20055;-80
2022/01/17 10:43:38;;;;;;;2.25;1.50;;;4.80;77.10;;;;;;5054118;28;20021;-81
2022/01/17 10:46:12;;;;;;;2.67;1.55;;;4.80;76.90;;;;;;5054341;28;20115;-79
2022/01/17 10:48:44;;;;;;;2.65;1.67;;;4.80;77.10;;;;;;5054296;28;20046;-79
2022/01/17 10:51:11;;;;;;;2.30;1.60;;;4.90;78.00;;;;;;5054250;28;20043;-79
2022/01/17 10:53:39;;;;;;;2.97;1.83;;;4.90;77.10;;;;;;5037832;28;20032;-79
2022/01/17 10:56:08;;;;;;;2.95;1.70;;;5.00;76.80;;;;;;5053954;28;20043;-81
2022/01/17 10:58:37;;;;;;;2.92;1.83;;;4.90;76.80;;;;;;5053648;28;20025;-79
2022/01/17 11:01:11;;;;;;;5.72;2.30;;;4.90;76.90;;;;;;5053894;28;20033;-78
2022/01/17 11:03:37;;;;;;;4.07;2.22;;;4.80;77.70;;;;;;5056093;28;20358;-80
2022/01/17 11:06:21;;;;;;;4.72;2.70;;;4.90;77.80;;;;;;5058015;28;20021;-80
2022/01/17 11:08:47;;;;;;;6.47;2.60;;;5.00;77.70;;;;;;5057411;28;20381;-81
2022/01/17 11:11:13;;;;;;;7.30;3.75;;;4.90;77.50;;;;;;5057737;28;20036;-79
2022/01/17 11:13:43;;;;;;;5.40;2.80;;;5.00;77.30;;;;;;5057840;28;20033;-81
2022/01/17 11:16:12;;;;;;;4.43;2.70;;;5.00;77.00;;;;;;5058136;28;20431;-81
2022/01/17 11:18:41;;;;;;;7.20;3.53;;;5.10;77.40;;;;;;5058169;28;20031;-81
2022/01/17 11:21:16;;;;;;;3.65;2.47;;;5.20;76.70;;;;;;5057860;28;20039;-80
2022/01/17 11:23:46;;;;;;;4.75;3.35;;;5.20;76.10;;;;;;5058011;28;20084;-82
2022/01/17 11:26:12;;;;;;;4.93;2.40;;;5.30;75.90;;;;;;5057798;28;20073;-81
2022/01/17 11:28:39;;;;;;;6.15;2.65;;;5.30;75.80;;;;;;5057707;28;20024;-81
2022/01/17 11:31:11;;;;;;;4.18;2.58;;;5.20;75.70;;;;;;5057447;28;20032;-81
2022/01/17 11:33:36;;;;;;;6.18;3.75;;;5.30;76.00;;;;;;5057922;28;20056;-81
2022/01/17 11:36:03;;;;;;;5.88;3.50;;;5.20;76.40;;;;;;5057218;28;20516;-80
2022/01/17 11:38:33;;;;;;;8.07;3.38;;;5.20;76.70;;;;;;5057698;28;20264;-80
2022/01/17 11:41:00;;;;;;;8.48;4.60;;;5.10;77.00;;;;;;5057540;28;20055;-83
2022/01/17 11:43:35;;;;;;;9.65;4.60;;;5.00;77.30;;;;;;5056980;28;20104;-78
2022/01/17 11:46:26;;;;;;;6.15;3.88;;;5.00;77.60;;;;;;5057060;28;20020;-81
2022/01/17 11:48:57;;;;;;;8.52;4.32;;;4.90;79.00;;;;;;5057640;28;20103;-81
2022/01/17 11:51:22;;;;;;;6.30;3.40;;;4.90;78.30;;;;;;5057106;28;20032;-79
2022/01/17 11:53:53;;;;;;;5.68;3.75;;;4.90;78.20;;;;;;5057373;28;20020;-80
2022/01/17 11:56:56;;;;;;;5.90;3.40;;;5.00;78.30;;;;;;5056992;28;20039;-79
2022/01/17 11:59:34;;;;;;;7.20;4.35;;;5.20;79.60;;;;;;5056854;28;20025;-80
2022/01/17 12:02:33;;;;;;;10.65;3.50;;;5.30;78.20;;;;;;5056501;28;20078;-79
2022/01/17 12:05:12;;;;;;;11.13;4.22;;;5.50;78.90;;;;;;5056923;28;20028;-77
2022/01/17 12:07:41;;;;;;;6.38;3.88;;;5.40;76.70;;;;;;5075057;28;20013;-75
2022/01/17 12:10:09;;;;;;;4.88;2.75;;;5.50;79.60;;;;;;5057465;28;20025;-77
2022/01/17 12:12:35;;;;;;;5.30;2.85;;;6.10;84.20;;;;;;5057408;28;20095;-84
2022/01/17 12:15:06;;;;;;;4.35;2.92;;;6.50;80.10;;;;;;5057003;28;20328;-87
2022/01/17 12:17:32;;;;;;;4.32;2.55;;;6.80;75.70;;;;;;5057132;28;20017;-78
2022/01/17 12:20:09;;;;;;;4.43;2.30;;;7.10;74.10;;;;;;5057574;28;20078;-88
2022/01/17 12:22:46;;;;;;;7.18;3.55;;;7.30;71.40;;;;;;5058631;28;20141;-85
2022/01/17 12:25:22;;;;;;;4.13;2.50;;;7.30;69.80;;;;;;5058201;28;20024;-86
2022/01/17 12:27:48;;;;;;;5.95;3.10;;;7.30;69.20;;;;;;5058298;28;20052;-78
2022/01/17 12:30:15;;;;;;;6.47;3.20;;;7.30;68.80;;;;;;5056987;28;20039;-89
2022/01/17 12:32:45;;;;;;;4.95;2.67;;;7.20;68.50;;;;;;5057355;28;20033;-84
2022/01/17 12:35:17;;;;;;;5.75;2.70;;;7.20;68.80;;;;;;5056472;28;20044;-84
2022/01/17 12:37:53;;;;;;;6.53;2.72;;;7.20;69.10;;;;;;5056922;28;20031;-81
2022/01/17 12:40:50;;;;;;;3.90;2.10;;;7.20;68.40;;;;;;5073901;28;20059;-81
2022/01/17 12:43:42;;;;;;;;;;;7.30;68.70;;;;;;5074305;28;20024;-81
2022/01/17 12:46:10;;;;;;;3.65;2.20;;;7.50;69.90;;;;;;5072253;28;19908;-81
2022/01/17 12:48:38;;;;;;;2.35;1.83;;;7.70;68.10;;;;;;5056812;28;20405;-81
2022/01/17 12:51:11;;;;;;;4.85;2.50;;;7.70;66.00;;;;;;5056383;28;20118;-81
2022/01/17 12:53:40;;;;;;;5.10;2.58;;;7.50;67.50;;;;;;5073486;28;20119;-81
2022/01/17 12:56:18;;;;;;;2.97;2.10;;;8.20;65.90;;;;;;5086396;28;20120;-84
2022/01/17 12:58:52;;;;;;;4.80;2.30;;;9.10;62.30;;;;;;5070673;28;20036;-81
2022/01/17 13:01:18;;;;;;;3.03;2.20;;;10.20;59.30;;;;;;5056843;28;20028;-81
2022/01/17 13:03:46;;;;;;;4.43;2.45;;;12.00;52.60;;;;;;5057781;28;20538;-81
2022/01/17 13:06:18;;;;;;;3.20;1.98;;;10.70;50.00;;;;;;5062316;28;20020;-82
2022/01/17 13:08:48;;;;;;;4.85;1.65;;;10.80;52.00;;;;;;5058161;28;20499;-81
2022/01/17 13:11:18;;;;;;;2.40;1.75;;;11.80;50.30;;;;;;5056118;28;20017;-86
2022/01/17 13:13:52;;;;;;;3.55;1.60;;;12.30;46.50;;;;;;5056951;28;20032;-84
2022/01/17 13:16:22;;;;;;;4.97;1.85;;;12.00;45.10;;;;;;5057553;28;20063;-82
2022/01/17 13:18:50;;;;;;;2.95;1.90;;;11.30;47.60;;;;;;5056393;28;20017;-81
2022/01/17 13:21:16;;;;;;;5.53;1.88;;;10.70;49.50;;;;;;5057353;28;20028;-84